Terminal Aerodrome Forecast
Issued by NWS Denver/Boulder, CO

Home | Current Version | Previous Version | Text Only | Print | Product List | Glossary On
Versions: 1 2 3 4 5 6 7 8 9 10 11 12 13 14 15 16 17 18 19 20 21 22 23 24 25 26 27 28 29 30 31
000
FTUS45 KBOU 161711 AAB
TAFDEN
TAF AMD
KDEN 161711Z 1617/1718 04006KT P6SM SCT060 SCT120 BKN220
     FM161800 03010KT P6SM FEW080 SCT120 SCT200
     FM170100 10008KT P6SM FEW110 SCT200
     FM170500 20010KT P6SM FEW200=

USA.gov is the U.S. government's official web portal to all federal, state and local government web resources and services.